Time;durP1;ratioP1;P1;durP2;ratioP2;P2;SDS_P1;SDS_P2;PMS_P1;PMS_P2;Temp;Humidity;BMP_temperature;BMP_pressure;BME280_temperature;BME280_humidity;BME280_pressure;Samples;Min_cycle;Max_cycle;Signal;HPM_P1;HPM_P2
2022/09/16 00:01:13;;;;;;;5.88;5.57;;;;;;;;;;5044708;28;20046;-72
2022/09/16 00:03:39;;;;;;;5.50;5.30;;;;;;;;;;5048737;28;20025;-72
2022/09/16 00:06:05;;;;;;;5.65;5.43;;;;;;;;;;5050713;28;20053;-73
2022/09/16 00:08:31;;;;;;;5.80;5.50;;;;;;;;;;5044187;28;20036;-73
2022/09/16 00:11:01;;;;;;;6.05;5.75;;;;;;;;;;5045401;28;20116;-73
2022/09/16 00:13:27;;;;;;;5.95;5.65;;;;;;;;;;5048672;28;20553;-73
2022/09/16 00:15:52;;;;;;;5.63;5.40;;;;;;;;;;5045521;28;20538;-73
2022/09/16 00:18:21;;;;;;;5.82;5.53;;;;;;;;;;5047242;28;20100;-73
2022/09/16 00:20:53;;;;;;;5.60;5.40;;;;;;;;;;5046060;28;20029;-73
2022/09/16 00:23:19;;;;;;;5.47;5.28;;;;;;;;;;5049086;28;20029;-73
2022/09/16 00:25:54;;;;;;;5.32;5.13;;;;;;;;;;5040217;28;20108;-73
2022/09/16 00:28:21;;;;;;;5.10;4.90;;;;;;;;;;5044430;28;20044;-73
2022/09/16 00:30:48;;;;;;;5.55;5.35;;;;;;;;;;5051939;28;20039;-73
2022/09/16 00:33:14;;;;;;;5.53;5.32;;;;;;;;;;5049959;28;20029;-73
2022/09/16 00:35:40;;;;;;;5.65;5.45;;;;;;;;;;5048573;28;20044;-72
2022/09/16 00:38:06;;;;;;;5.55;5.35;;;;;;;;;;5047481;28;20041;-73
2022/09/16 00:40:32;;;;;;;5.65;5.40;;;;;;;;;;5049862;28;20043;-73
2022/09/16 00:42:59;;;;;;;5.65;5.43;;;;;;;;;;5050392;28;20081;-73
2022/09/16 00:45:30;;;;;;;5.50;5.30;;;;;;;;;;5056149;28;20032;-73
2022/09/16 00:48:06;;;;;;;5.28;5.07;;;;;;;;;;5051026;28;20036;-73
2022/09/16 00:50:37;;;;;;;5.60;5.40;;;;;;;;;;5048087;28;20471;-73
2022/09/16 00:53:04;;;;;;;5.45;5.25;;;;;;;;;;5044291;28;20037;-73
2022/09/16 00:55:34;;;;;;;5.35;5.15;;;;;;;;;;5050477;28;20028;-73
2022/09/16 00:58:33;;;;;;;5.38;5.18;;;;;;;;;;5047072;28;20029;-72
2022/09/16 01:00:58;;;;;;;6.82;6.35;;;;;;;;;;5048337;28;20048;-72
2022/09/16 01:03:26;;;;;;;5.30;5.10;;;;;;;;;;5049278;28;20039;-73
2022/09/16 01:05:52;;;;;;;5.45;5.25;;;;;;;;;;5051441;28;20099;-72
2022/09/16 01:08:18;;;;;;;5.65;5.45;;;;;;;;;;5049055;28;20492;-72
2022/09/16 01:10:43;;;;;;;5.72;5.47;;;;;;;;;;5046436;28;20033;-73
2022/09/16 01:13:12;;;;;;;5.70;5.45;;;;;;;;;;5047524;28;20643;-73
2022/09/16 01:15:47;;;;;;;5.53;5.32;;;;;;;;;;5051537;28;20523;-73
2022/09/16 01:18:22;;;;;;;5.60;5.40;;;;;;;;;;5050370;28;20133;-73
2022/09/16 01:21:19;;;;;;;5.25;5.05;;;;;;;;;;5045936;28;20040;-73
2022/09/16 01:24:14;;;;;;;5.20;5.00;;;;;;;;;;5052628;28;20024;-73
2022/09/16 01:26:59;;;;;;;5.43;5.22;;;;;;;;;;5048334;28;20687;-73
2022/09/16 01:29:36;;;;;;;5.50;5.30;;;;;;;;;;5047764;28;20107;-73
2022/09/16 01:32:17;;;;;;;5.50;5.30;;;;;;;;;;5046453;28;20072;-73
2022/09/16 01:35:03;;;;;;;5.60;5.40;;;;;;;;;;5053123;28;20598;-73
2022/09/16 01:38:06;;;;;;;5.50;5.30;;;;;;;;;;5045881;28;20484;-72
2022/09/16 01:40:39;;;;;;;5.53;5.32;;;;;;;;;;5051725;28;20037;-72
2022/09/16 01:43:37;;;;;;;5.50;5.30;;;;;;;;;;5045566;28;20082;-73
2022/09/16 01:46:14;;;;;;;5.60;5.40;;;;;;;;;;5045335;28;20745;-72
2022/09/16 01:48:51;;;;;;;5.07;4.88;;;;;;;;;;5053119;28;20061;-73
2022/09/16 01:51:26;;;;;;;5.10;4.90;;;;;;;;;;5054438;28;20036;-73
2022/09/16 01:54:11;;;;;;;5.47;5.28;;;;;;;;;;5045969;28;20120;-73
2022/09/16 01:56:51;;;;;;;5.80;5.50;;;;;;;;;;5053203;28;20033;-73
2022/09/16 01:59:22;;;;;;;5.38;5.18;;;;;;;;;;5047319;28;20067;-73
2022/09/16 02:01:57;;;;;;;5.30;5.10;;;;;;;;;;5046182;28;20044;-73
2022/09/16 02:04:28;;;;;;;5.50;5.30;;;;;;;;;;5053829;28;20028;-73
2022/09/16 02:06:56;;;;;;;5.32;5.13;;;;;;;;;;5073273;28;20033;-73
2022/09/16 02:09:29;;;;;;;5.55;5.35;;;;;;;;;;5051892;28;20123;-73
2022/09/16 02:12:04;;;;;;;5.80;5.50;;;;;;;;;;5054218;28;20461;-73
2022/09/16 02:14:34;;;;;;;5.95;5.65;;;;;;;;;;5051778;28;20142;-73
2022/09/16 02:17:04;;;;;;;5.50;5.30;;;;;;;;;;5050489;28;20036;-73
2022/09/16 02:20:01;;;;;;;5.60;5.40;;;;;;;;;;5053334;28;20496;-73
2022/09/16 02:22:33;;;;;;;5.80;5.50;;;;;;;;;;4971450;28;20042;-73
2022/09/16 02:25:02;;;;;;;5.28;5.07;;;;;;;;;;4959425;28;20038;-73
2022/09/16 02:27:29;;;;;;;5.40;5.20;;;;;;;;;;4970820;28;20126;-73
2022/09/16 02:30:04;;;;;;;5.30;5.10;;;;;;;;;;4975812;28;20031;-72
2022/09/16 02:32:32;;;;;;;5.38;5.18;;;;;;;;;;4957354;28;20061;-73
2022/09/16 02:35:00;;;;;;;5.50;5.30;;;;;;;;;;4965718;28;20409;-73
2022/09/16 02:37:33;;;;;;;5.40;5.20;;;;;;;;;;4973922;28;20202;-73
2022/09/16 02:40:04;;;;;;;5.38;5.18;;;;;;;;;;4974645;28;20105;-73
2022/09/16 02:42:32;;;;;;;5.40;5.20;;;;;;;;;;4973680;28;20406;-73
2022/09/16 02:44:59;;;;;;;5.78;5.47;;;;;;;;;;4970606;28;20035;-73
2022/09/16 02:47:55;;;;;;;5.60;5.40;;;;;;;;;;4967838;28;20094;-73
2022/09/16 02:50:31;;;;;;;5.30;5.10;;;;;;;;;;4968235;28;20043;-73
2022/09/16 02:53:15;;;;;;;5.32;5.13;;;;;;;;;;4972641;28;20062;-73
2022/09/16 02:55:49;;;;;;;5.53;5.32;;;;;;;;;;4965011;28;20658;-73
2022/09/16 02:58:15;;;;;;;5.25;5.05;;;;;;;;;;4979520;28;20058;-73
2022/09/16 03:00:45;;;;;;;5.60;5.40;;;;;;;;;;5052750;28;20375;-73
2022/09/16 03:03:12;;;;;;;5.10;4.90;;;;;;;;;;5046938;28;20124;-73
2022/09/16 03:06:02;;;;;;;5.43;5.22;;;;;;;;;;5050162;28;20102;-73
2022/09/16 03:08:28;;;;;;;5.25;5.05;;;;;;;;;;5053020;28;20032;-73
2022/09/16 03:10:59;;;;;;;5.40;5.20;;;;;;;;;;5047670;28;20095;-73
2022/09/16 03:13:43;;;;;;;5.45;5.25;;;;;;;;;;5047367;28;20118;-73
2022/09/16 03:16:45;;;;;;;5.18;4.97;;;;;;;;;;5048836;28;20108;-73
2022/09/16 03:19:25;;;;;;;5.75;5.50;;;;;;;;;;5047462;28;20037;-73
2022/09/16 03:22:16;;;;;;;5.50;5.30;;;;;;;;;;5051483;28;20395;-73
2022/09/16 03:25:08;;;;;;;5.40;5.20;;;;;;;;;;5057538;28;20037;-73
2022/09/16 03:27:49;;;;;;;5.63;5.43;;;;;;;;;;5051097;28;20495;-73
2022/09/16 03:30:15;;;;;;;5.22;5.03;;;;;;;;;;5045466;28;20064;-73
2022/09/16 03:32:48;;;;;;;5.20;5.00;;;;;;;;;;5048526;28;20036;-73
2022/09/16 03:35:22;;;;;;;5.28;5.07;;;;;;;;;;5047127;28;20044;-73
2022/09/16 03:37:49;;;;;;;5.50;5.30;;;;;;;;;;5050481;28;20032;-73
2022/09/16 03:40:18;;;;;;;6.00;5.70;;;;;;;;;;5050425;28;20487;-73
2022/09/16 03:42:44;;;;;;;5.40;5.20;;;;;;;;;;5046059;28;20668;-73
2022/09/16 03:45:17;;;;;;;5.53;5.32;;;;;;;;;;5049483;28;20040;-73
2022/09/16 03:47:48;;;;;;;5.80;5.50;;;;;;;;;;5051580;28;20048;-73
2022/09/16 03:50:14;;;;;;;5.45;5.25;;;;;;;;;;5051602;28;20090;-72
2022/09/16 03:52:40;;;;;;;5.80;5.50;;;;;;;;;;5047454;28;20062;-72
2022/09/16 03:55:07;;;;;;;5.47;5.28;;;;;;;;;;5050418;28;20032;-72
2022/09/16 03:57:33;;;;;;;5.03;4.82;;;;;;;;;;5050994;28;20039;-72
2022/09/16 03:59:59;;;;;;;5.22;5.03;;;;;;;;;;5051413;28;20032;-72
2022/09/16 04:02:24;;;;;;;5.45;5.25;;;;;;;;;;5050221;28;20033;-73
2022/09/16 04:04:50;;;;;;;5.90;5.60;;;;;;;;;;5055277;28;20034;-72
2022/09/16 04:07:16;;;;;;;5.68;5.43;;;;;;;;;;5049806;28;20044;-72
2022/09/16 04:09:42;;;;;;;5.47;5.28;;;;;;;;;;5053649;28;20033;-72
2022/09/16 04:12:08;;;;;;;6.03;5.72;;;;;;;;;;5051371;28;20032;-72
2022/09/16 04:14:34;;;;;;;5.57;5.38;;;;;;;;;;5059907;28;20033;-73
2022/09/16 04:17:00;;;;;;;6.13;5.82;;;;;;;;;;5049093;28;20033;-73
2022/09/16 04:19:26;;;;;;;5.70;5.40;;;;;;;;;;5048556;28;20486;-73
2022/09/16 04:21:52;;;;;;;5.80;5.50;;;;;;;;;;5048206;28;20040;-73
2022/09/16 04:24:17;;;;;;;5.90;5.60;;;;;;;;;;5050054;28;20029;-72
2022/09/16 04:26:44;;;;;;;5.78;5.47;;;;;;;;;;5048228;28;20063;-72
2022/09/16 04:29:09;;;;;;;5.80;5.50;;;;;;;;;;5052042;28;20032;-72
2022/09/16 04:31:35;;;;;;;5.40;5.20;;;;;;;;;;5046596;28;20029;-72
2022/09/16 04:34:02;;;;;;;5.40;5.20;;;;;;;;;;5051370;28;20441;-72
2022/09/16 04:36:28;;;;;;;5.75;5.47;;;;;;;;;;5050986;28;20044;-72
2022/09/16 04:38:54;;;;;;;5.82;5.53;;;;;;;;;;5053260;28;20040;-72
2022/09/16 04:41:23;;;;;;;5.78;5.47;;;;;;;;;;5048049;28;20084;-72
2022/09/16 04:43:54;;;;;;;5.85;5.55;;;;;;;;;;5051991;28;20020;-71
2022/09/16 04:46:21;;;;;;;5.75;5.45;;;;;;;;;;5052743;28;20036;-72
2022/09/16 04:48:48;;;;;;;5.55;5.35;;;;;;;;;;5050452;28;20051;-71
2022/09/16 04:51:14;;;;;;;5.90;5.60;;;;;;;;;;5047320;28;20064;-71
2022/09/16 04:53:42;;;;;;;5.88;5.57;;;;;;;;;;5047228;28;20067;-71
2022/09/16 04:56:28;;;;;;;5.90;5.60;;;;;;;;;;5044412;28;20112;-71
2022/09/16 04:58:57;;;;;;;5.50;5.30;;;;;;;;;;5049102;28;20032;-72
2022/09/16 05:01:25;;;;;;;5.40;5.20;;;;;;;;;;5048894;28;20078;-71
2022/09/16 05:03:53;;;;;;;5.97;5.67;;;;;;;;;;5052404;28;20431;-72
2022/09/16 05:06:24;;;;;;;5.60;5.40;;;;;;;;;;5047109;28;20303;-71
2022/09/16 05:08:51;;;;;;;6.03;5.72;;;;;;;;;;5046220;28;20041;-72
2022/09/16 05:11:19;;;;;;;5.75;5.45;;;;;;;;;;5049374;28;20037;-72
2022/09/16 05:13:46;;;;;;;5.53;5.32;;;;;;;;;;5045068;28;20041;-71
2022/09/16 05:16:16;;;;;;;5.93;5.63;;;;;;;;;;5048092;28;20087;-71
2022/09/16 05:18:43;;;;;;;6.18;5.88;;;;;;;;;;5053397;28;20500;-71
2022/09/16 05:21:12;;;;;;;5.82;5.53;;;;;;;;;;5047276;28;20074;-71
2022/09/16 05:23:39;;;;;;;6.27;5.97;;;;;;;;;;5047706;28;20044;-71
2022/09/16 05:26:30;;;;;;;5.70;5.40;;;;;;;;;;5046921;28;20033;-71
2022/09/16 05:28:59;;;;;;;6.43;6.13;;;;;;;;;;5054533;28;20052;-70
2022/09/16 05:31:27;;;;;;;6.40;6.10;;;;;;;;;;5046858;28;20584;-70
2022/09/16 05:34:00;;;;;;;6.00;5.70;;;;;;;;;;5050750;28;20029;-71
2022/09/16 05:36:28;;;;;;;5.40;5.20;;;;;;;;;;5046867;28;20111;-71
2022/09/16 05:38:55;;;;;;;5.60;5.40;;;;;;;;;;5046848;28;20082;-72
2022/09/16 05:41:21;;;;;;;5.60;5.40;;;;;;;;;;5056114;28;20466;-72
2022/09/16 05:43:47;;;;;;;5.50;5.30;;;;;;;;;;5050328;28;20056;-72
2022/09/16 05:46:19;;;;;;;5.40;5.20;;;;;;;;;;5050898;28;20120;-73
2022/09/16 05:48:45;;;;;;;5.95;5.65;;;;;;;;;;5048576;28;20033;-72
2022/09/16 05:51:14;;;;;;;5.93;5.63;;;;;;;;;;5045550;28;20037;-72
2022/09/16 05:53:40;;;;;;;5.65;5.43;;;;;;;;;;5057869;28;20044;-73
2022/09/16 05:56:09;;;;;;;5.40;5.20;;;;;;;;;;5048823;28;20036;-73
2022/09/16 05:58:36;;;;;;;5.65;5.40;;;;;;;;;;5050166;28;20036;-72
2022/09/16 06:01:04;;;;;;;6.20;5.90;;;;;;;;;;5047944;28;20090;-72
2022/09/16 06:03:32;;;;;;;5.70;5.43;;;;;;;;;;5044812;28;20029;-72
2022/09/16 06:06:02;;;;;;;5.97;5.68;;;;;;;;;;5034943;28;20036;-72
2022/09/16 06:08:33;;;;;;;6.53;6.22;;;;;;;;;;5044684;28;20029;-73
2022/09/16 06:11:07;;;;;;;6.30;6.00;;;;;;;;;;5048591;28;20068;-72
2022/09/16 06:13:33;;;;;;;6.38;6.07;;;;;;;;;;5046426;28;20476;-73
2022/09/16 06:16:00;;;;;;;6.22;5.93;;;;;;;;;;5053403;28;20037;-73
2022/09/16 06:18:28;;;;;;;6.38;6.07;;;;;;;;;;5052591;28;20067;-72
2022/09/16 06:20:54;;;;;;;6.68;6.38;;;;;;;;;;5047422;28;20044;-72
2022/09/16 06:23:20;;;;;;;6.18;5.88;;;;;;;;;;5043548;28;20120;-72
2022/09/16 06:25:46;;;;;;;6.53;6.22;;;;;;;;;;5063948;28;20113;-72
2022/09/16 06:28:12;;;;;;;6.70;6.40;;;;;;;;;;5050789;28;20033;-73
2022/09/16 06:30:38;;;;;;;6.57;6.28;;;;;;;;;;5052172;28;20029;-72
2022/09/16 06:33:04;;;;;;;6.10;5.80;;;;;;;;;;5054740;28;20041;-72
2022/09/16 06:35:30;;;;;;;6.63;6.13;;;;;;;;;;5044638;28;20037;-73
2022/09/16 06:37:56;;;;;;;6.18;5.88;;;;;;;;;;5051669;28;20033;-72
2022/09/16 06:40:22;;;;;;;6.32;6.03;;;;;;;;;;5044379;28;20503;-72
2022/09/16 06:42:47;;;;;;;6.38;6.07;;;;;;;;;;5051621;28;20043;-71
2022/09/16 06:45:13;;;;;;;6.40;6.10;;;;;;;;;;5046955;28;20037;-72
2022/09/16 06:47:38;;;;;;;6.28;5.97;;;;;;;;;;5049036;28;20036;-72
2022/09/16 06:50:04;;;;;;;6.43;6.13;;;;;;;;;;5049422;28;20086;-72
2022/09/16 06:52:30;;;;;;;6.40;6.10;;;;;;;;;;5050409;28;20119;-73
2022/09/16 06:54:56;;;;;;;6.50;6.20;;;;;;;;;;5049858;28;20040;-71
2022/09/16 06:57:22;;;;;;;6.20;5.90;;;;;;;;;;5049019;28;20049;-72
2022/09/16 06:59:49;;;;;;;5.88;5.57;;;;;;;;;;5052577;28;20267;-73
2022/09/16 07:02:15;;;;;;;6.05;5.75;;;;;;;;;;5049635;28;20045;-73
2022/09/16 07:04:41;;;;;;;6.10;5.80;;;;;;;;;;5054028;28;20050;-73
2022/09/16 07:07:07;;;;;;;6.82;6.53;;;;;;;;;;5049277;28;20044;-72
2022/09/16 07:09:32;;;;;;;6.65;6.35;;;;;;;;;;5067365;28;20472;-73
2022/09/16 07:11:58;;;;;;;6.50;6.20;;;;;;;;;;5050799;28;20673;-72
2022/09/16 07:14:24;;;;;;;6.68;6.38;;;;;;;;;;5049865;28;20028;-72
2022/09/16 07:16:50;;;;;;;6.55;6.25;;;;;;;;;;5050446;28;20044;-71
2022/09/16 07:19:16;;;;;;;6.03;5.72;;;;;;;;;;5054545;28;20399;-72
2022/09/16 07:21:42;;;;;;;6.40;6.10;;;;;;;;;;5055595;28;20047;-70
2022/09/16 07:24:09;;;;;;;6.15;5.85;;;;;;;;;;5055139;28;20032;-71
2022/09/16 07:26:36;;;;;;;6.78;6.47;;;;;;;;;;5049234;28;20110;-72
2022/09/16 07:29:04;;;;;;;6.85;6.55;;;;;;;;;;5059478;28;20036;-71
2022/09/16 07:31:33;;;;;;;6.45;6.15;;;;;;;;;;5051881;28;20081;-70
2022/09/16 07:34:02;;;;;;;6.78;6.47;;;;;;;;;;5051530;28;20681;-72
2022/09/16 07:36:32;;;;;;;6.68;6.38;;;;;;;;;;5051412;28;20504;-71
2022/09/16 07:38:58;;;;;;;6.95;6.65;;;;;;;;;;5052149;28;20407;-71
2022/09/16 07:41:31;;;;;;;6.90;6.60;;;;;;;;;;5055476;28;20033;-71
2022/09/16 07:43:58;;;;;;;6.78;6.47;;;;;;;;;;5056067;28;20036;-71
2022/09/16 07:46:26;;;;;;;7.30;6.90;;;;;;;;;;5050883;28;20083;-73
2022/09/16 07:48:53;;;;;;;7.40;7.00;;;;;;;;;;5051613;28;20029;-72
2022/09/16 07:51:21;;;;;;;7.05;6.75;;;;;;;;;;5048424;28;20041;-72
2022/09/16 07:53:48;;;;;;;6.70;6.40;;;;;;;;;;5057200;28;20037;-70
2022/09/16 07:56:16;;;;;;;7.10;6.80;;;;;;;;;;5049692;28;20452;-70
2022/09/16 07:58:46;;;;;;;7.03;6.72;;;;;;;;;;5048108;28;20036;-71
2022/09/16 08:01:13;;;;;;;6.88;6.57;;;;;;;;;;5048392;28;20045;-73
2022/09/16 08:03:40;;;;;;;7.40;7.00;;;;;;;;;;5048610;28;20458;-73
2022/09/16 08:06:11;;;;;;;6.97;6.68;;;;;;;;;;5046851;28;20033;-72
2022/09/16 08:08:38;;;;;;;7.30;6.90;;;;;;;;;;5047765;28;20035;-71
2022/09/16 08:11:04;;;;;;;6.90;6.60;;;;;;;;;;5048088;28;20438;-71
2022/09/16 08:13:31;;;;;;;7.10;6.80;;;;;;;;;;5056489;28;20024;-71
2022/09/16 08:16:06;;;;;;;7.07;6.78;;;;;;;;;;5051515;28;20483;-70
2022/09/16 08:18:32;;;;;;;7.25;6.90;;;;;;;;;;5048725;28;20028;-72
2022/09/16 08:21:03;;;;;;;7.00;6.70;;;;;;;;;;5046877;28;20090;-71
2022/09/16 08:23:28;;;;;;;7.30;6.90;;;;;;;;;;5050083;28;20028;-71
2022/09/16 08:26:00;;;;;;;7.45;7.05;;;;;;;;;;5047278;28;20094;-72
2022/09/16 08:28:27;;;;;;;7.50;7.10;;;;;;;;;;5055165;28;20028;-72
2022/09/16 08:30:53;;;;;;;7.45;7.05;;;;;;;;;;5052533;28;20040;-72
2022/09/16 08:33:21;;;;;;;7.50;7.10;;;;;;;;;;5049329;28;20044;-73
2022/09/16 08:36:09;;;;;;;7.75;7.35;;;;;;;;;;5053418;28;20048;-73
2022/09/16 08:38:35;;;;;;;7.45;7.05;;;;;;;;;;5047877;28;20414;-73
2022/09/16 08:41:27;;;;;;;7.30;6.90;;;;;;;;;;5041244;28;20654;-73
2022/09/16 08:44:04;;;;;;;7.40;7.00;;;;;;;;;;5036705;28;20519;-72
2022/09/16 08:46:49;;;;;;;7.65;7.25;;;;;;;;;;5048654;28;20044;-72
2022/09/16 08:49:29;;;;;;;7.55;7.15;;;;;;;;;;5042216;28;20033;-71
2022/09/16 08:51:58;;;;;;;7.80;7.40;;;;;;;;;;5051345;28;20032;-71
2022/09/16 08:54:28;;;;;;;7.13;6.83;;;;;;;;;;5057331;28;20047;-71
2022/09/16 08:56:58;;;;;;;7.47;7.07;;;;;;;;;;5051098;28;20097;-73
2022/09/16 08:59:28;;;;;;;7.30;6.90;;;;;;;;;;5054408;28;20029;-71
2022/09/16 09:02:02;;;;;;;7.57;7.18;;;;;;;;;;5050555;28;20044;-71
2022/09/16 09:04:28;;;;;;;7.50;7.10;;;;;;;;;;5046235;28;20025;-71
2022/09/16 09:07:00;;;;;;;7.80;7.40;;;;;;;;;;5032722;28;20179;-70
2022/09/16 09:09:39;;;;;;;7.60;7.20;;;;;;;;;;5048188;28;20024;-73
2022/09/16 09:12:09;;;;;;;;;;;;;;;;;;5046493;28;20036;-72
2022/09/16 09:15:02;;;;;;;7.40;7.00;;;;;;;;;;5042940;28;19920;-72
2022/09/16 09:18:04;;;;;;;7.05;6.75;;;;;;;;;;5044886;28;20036;-71
2022/09/16 09:21:03;;;;;;;7.22;6.93;;;;;;;;;;5037410;28;20496;-71
2022/09/16 09:23:29;;;;;;;;;;;;;;;;;;5043581;28;20137;-71
2022/09/16 09:25:54;;;;;;;7.53;7.13;;;;;;;;;;5041444;28;20193;-72
2022/09/16 09:28:26;;;;;;;7.15;6.85;;;;;;;;;;5043876;28;20045;-72
2022/09/16 09:31:14;;;;;;;7.03;6.72;;;;;;;;;;5052674;28;20032;-72
2022/09/16 09:33:46;;;;;;;6.40;6.10;;;;;;;;;;5050211;28;20033;-71
2022/09/16 09:36:41;;;;;;;7.28;6.90;;;;;;;;;;5049843;28;20078;-72
2022/09/16 09:39:44;;;;;;;6.65;6.35;;;;;;;;;;5048191;28;20033;-72
2022/09/16 09:42:26;;;;;;;7.72;7.32;;;;;;;;;;5048639;28;20116;-72
2022/09/16 09:44:58;;;;;;;8.07;7.68;;;;;;;;;;5053407;28;20032;-73
2022/09/16 09:47:31;;;;;;;7.63;7.22;;;;;;;;;;5054338;28;20051;-72
2022/09/16 09:50:08;;;;;;;7.65;7.25;;;;;;;;;;5045276;28;20041;-72
2022/09/16 09:52:44;;;;;;;7.28;6.93;;;;;;;;;;5048928;28;20422;-72
2022/09/16 09:55:23;;;;;;;7.30;6.93;;;;;;;;;;5051297;28;20093;-72
2022/09/16 09:57:51;;;;;;;7.97;7.57;;;;;;;;;;5049079;28;20124;-72
2022/09/16 10:00:20;;;;;;;7.70;7.30;;;;;;;;;;5048314;28;20078;-73
2022/09/16 10:02:45;;;;;;;7.97;7.57;;;;;;;;;;5049955;28;20037;-71
2022/09/16 10:05:23;;;;;;;7.95;7.55;;;;;;;;;;5047862;28;20421;-72
2022/09/16 10:07:53;;;;;;;7.45;7.05;;;;;;;;;;5048160;28;20033;-71
2022/09/16 10:10:22;;;;;;;7.40;7.00;;;;;;;;;;5049236;28;20062;-72
2022/09/16 10:12:48;;;;;;;;;;;;;;;;;;5050127;28;20041;-72
2022/09/16 10:15:24;;;;;;;7.75;7.35;;;;;;;;;;5048649;28;19924;-72
2022/09/16 10:17:53;;;;;;;7.60;7.20;;;;;;;;;;5049009;28;20040;-72
2022/09/16 10:20:25;;;;;;;;;;;;;;;;;;5046796;28;20387;-71
2022/09/16 10:22:59;;;;;;;7.00;6.70;;;;;;;;;;5047794;28;19958;-71
2022/09/16 10:25:31;;;;;;;7.50;7.10;;;;;;;;;;5053368;28;20246;-71
2022/09/16 10:28:00;;;;;;;7.63;7.22;;;;;;;;;;5054996;28;20045;-72
2022/09/16 10:30:28;;;;;;;8.03;7.63;;;;;;;;;;5060127;28;20029;-72
2022/09/16 10:33:06;;;;;;;7.47;7.07;;;;;;;;;;5052594;28;20393;-71
2022/09/16 10:35:34;;;;;;;7.38;6.97;;;;;;;;;;5053334;28;20040;-71
2022/09/16 10:38:15;;;;;;;7.82;7.43;;;;;;;;;;5049742;28;20043;-72
2022/09/16 10:40:53;;;;;;;7.60;7.20;;;;;;;;;;5070714;28;20033;-73
2022/09/16 10:43:19;;;;;;;7.70;7.30;;;;;;;;;;5050076;28;20064;-72
2022/09/16 10:45:51;;;;;;;7.65;7.25;;;;;;;;;;5046357;28;20307;-71
2022/09/16 10:48:26;;;;;;;7.32;6.93;;;;;;;;;;5046373;28;20793;-71
2022/09/16 10:50:57;;;;;;;7.30;6.90;;;;;;;;;;5055725;28;20429;-73
2022/09/16 10:53:37;;;;;;;7.70;7.30;;;;;;;;;;5055658;28;20032;-71
2022/09/16 10:56:06;;;;;;;7.60;7.20;;;;;;;;;;5064425;28;20040;-71
2022/09/16 10:58:32;;;;;;;7.80;7.40;;;;;;;;;;5056300;28;20041;-72
2022/09/16 11:01:19;;;;;;;7.95;7.55;;;;;;;;;;5049345;28;20459;-71
2022/09/16 11:04:13;;;;;;;7.68;7.28;;;;;;;;;;5047984;28;20064;-72
2022/09/16 11:06:38;;;;;;;7.60;7.20;;;;;;;;;;5052907;28;20036;-71
2022/09/16 11:09:21;;;;;;;8.63;7.88;;;;;;;;;;5053605;28;20045;-71
2022/09/16 11:11:46;;;;;;;7.85;7.45;;;;;;;;;;5046837;28;20095;-71
2022/09/16 11:14:24;;;;;;;8.05;7.65;;;;;;;;;;5049380;28;20041;-71
2022/09/16 11:17:21;;;;;;;8.20;7.80;;;;;;;;;;5059380;28;20035;-71
2022/09/16 11:19:58;;;;;;;7.93;7.53;;;;;;;;;;5051783;28;20044;-71
2022/09/16 11:22:53;;;;;;;7.80;7.40;;;;;;;;;;5051270;28;20036;-71
2022/09/16 11:25:49;;;;;;;7.70;7.30;;;;;;;;;;5051652;28;20036;-69
2022/09/16 11:28:17;;;;;;;7.80;7.40;;;;;;;;;;5056123;28;20036;-72
2022/09/16 11:31:09;;;;;;;8.05;7.65;;;;;;;;;;5053483;28;20103;-70
2022/09/16 11:33:57;;;;;;;7.88;7.47;;;;;;;;;;5041949;28;20045;-71
2022/09/16 11:36:47;;;;;;;7.88;7.47;;;;;;;;;;5054843;28;20025;-72
2022/09/16 11:39:30;;;;;;;7.50;7.10;;;;;;;;;;5057248;28;20090;-72
2022/09/16 11:42:14;;;;;;;8.00;7.60;;;;;;;;;;5058380;28;20036;-71
2022/09/16 11:44:56;;;;;;;7.60;7.20;;;;;;;;;;5047531;28;20041;-73
2022/09/16 11:47:32;;;;;;;7.90;7.50;;;;;;;;;;5056880;28;20039;-71
2022/09/16 11:50:24;;;;;;;7.80;7.40;;;;;;;;;;5054288;28;20053;-71
2022/09/16 11:53:27;;;;;;;7.70;7.30;;;;;;;;;;5051916;28;20389;-72
2022/09/16 11:56:03;;;;;;;7.88;7.47;;;;;;;;;;5049406;28;20155;-71
2022/09/16 11:58:28;;;;;;;8.20;7.80;;;;;;;;;;5043247;28;20036;-71
2022/09/16 12:00:58;;;;;;;7.95;7.55;;;;;;;;;;5047710;28;20039;-72
2022/09/16 12:03:36;;;;;;;7.80;7.40;;;;;;;;;;5052322;28;20041;-72
2022/09/16 12:06:13;;;;;;;7.78;7.38;;;;;;;;;;5052737;28;20032;-72
2022/09/16 12:09:02;;;;;;;8.32;7.93;;;;;;;;;;5048721;28;20066;-71
2022/09/16 12:11:35;;;;;;;8.23;7.82;;;;;;;;;;5045219;28;20037;-72
2022/09/16 12:14:15;;;;;;;7.93;7.53;;;;;;;;;;5047255;28;20132;-72
2022/09/16 12:16:53;;;;;;;8.35;7.95;;;;;;;;;;5050609;28;20021;-72
2022/09/16 12:19:28;;;;;;;8.90;8.48;;;;;;;;;;5050242;28;20705;-72
2022/09/16 12:22:03;;;;;;;8.20;7.80;;;;;;;;;;5046644;28;20033;-72
2022/09/16 12:24:37;;;;;;;8.32;7.93;;;;;;;;;;5044649;28;20044;-72
2022/09/16 12:27:12;;;;;;;7.80;7.40;;;;;;;;;;5044843;28;20072;-71
2022/09/16 12:29:55;;;;;;;7.97;7.57;;;;;;;;;;5044697;28;20037;-71
2022/09/16 12:32:42;;;;;;;7.85;7.45;;;;;;;;;;5048270;28;20032;-71
2022/09/16 12:35:17;;;;;;;7.93;7.53;;;;;;;;;;5042676;28;20629;-71
2022/09/16 12:37:49;;;;;;;8.05;7.65;;;;;;;;;;5049820;28;20446;-72
2022/09/16 12:40:24;;;;;;;7.50;7.10;;;;;;;;;;5053087;28;20037;-72
2022/09/16 12:43:23;;;;;;;7.55;7.15;;;;;;;;;;5046999;28;20037;-71
2022/09/16 12:45:57;;;;;;;8.00;7.60;;;;;;;;;;5055555;28;20040;-71
2022/09/16 12:48:44;;;;;;;7.60;7.20;;;;;;;;;;5045707;28;20120;-71
2022/09/16 12:51:46;;;;;;;7.40;7.00;;;;;;;;;;5043091;28;20057;-71
2022/09/16 12:54:31;;;;;;;7.60;7.20;;;;;;;;;;5045327;28;20056;-71
2022/09/16 12:57:06;;;;;;;7.85;7.45;;;;;;;;;;5051895;28;20028;-71
2022/09/16 12:59:53;;;;;;;7.78;7.38;;;;;;;;;;5043930;28;20025;-71
2022/09/16 13:02:22;;;;;;;7.82;7.43;;;;;;;;;;5049852;28;20124;-71
2022/09/16 13:04:52;;;;;;;7.60;7.20;;;;;;;;;;5047530;28;20040;-71
2022/09/16 13:07:33;;;;;;;7.40;7.00;;;;;;;;;;5045292;28;20033;-71
2022/09/16 13:10:03;;;;;;;7.30;6.90;;;;;;;;;;5048446;28;20037;-71
2022/09/16 13:12:29;;;;;;;7.50;7.10;;;;;;;;;;5046868;28;20546;-71
2022/09/16 13:15:04;;;;;;;7.40;7.00;;;;;;;;;;5053046;28;20777;-71
2022/09/16 13:17:33;;;;;;;7.57;7.18;;;;;;;;;;5043653;28;20040;-71
2022/09/16 13:20:11;;;;;;;7.50;7.10;;;;;;;;;;5047263;28;20602;-71
2022/09/16 13:22:54;;;;;;;8.07;7.68;;;;;;;;;;5045169;28;20047;-72
2022/09/16 13:25:39;;;;;;;7.90;7.50;;;;;;;;;;5052064;28;20119;-72
2022/09/16 13:28:34;;;;;;;8.23;7.82;;;;;;;;;;5048658;28;20037;-72
2022/09/16 13:31:18;;;;;;;7.85;7.45;;;;;;;;;;5049009;28;20106;-71
2022/09/16 13:33:46;;;;;;;7.30;6.90;;;;;;;;;;5050972;28;20040;-71
2022/09/16 13:36:16;;;;;;;7.78;7.38;;;;;;;;;;5049656;28;20147;-72
2022/09/16 13:38:45;;;;;;;7.68;7.28;;;;;;;;;;5045157;28;20040;-72
2022/09/16 13:41:13;;;;;;;7.28;6.90;;;;;;;;;;5045993;28;20397;-72
2022/09/16 13:43:38;;;;;;;7.50;7.10;;;;;;;;;;5048694;28;20052;-72
2022/09/16 13:46:17;;;;;;;7.68;7.28;;;;;;;;;;5045533;28;20075;-72
2022/09/16 13:48:50;;;;;;;7.47;7.07;;;;;;;;;;5045208;28;20037;-72
2022/09/16 13:51:20;;;;;;;7.53;7.13;;;;;;;;;;5048351;28;20045;-72
2022/09/16 13:53:48;;;;;;;7.85;7.45;;;;;;;;;;5044378;28;20549;-72
2022/09/16 13:56:32;;;;;;;7.80;7.40;;;;;;;;;;5047251;28;20029;-72
2022/09/16 13:59:16;;;;;;;7.68;7.28;;;;;;;;;;5051809;28;20029;-72
2022/09/16 14:02:07;;;;;;;7.35;6.95;;;;;;;;;;5056091;28;20036;-71
2022/09/16 14:04:55;;;;;;;7.40;7.00;;;;;;;;;;5051800;28;20021;-72
2022/09/16 14:07:37;;;;;;;7.35;6.95;;;;;;;;;;5067877;28;20052;-72
2022/09/16 14:10:16;;;;;;;7.80;7.40;;;;;;;;;;5055067;28;20037;-72
2022/09/16 14:13:06;;;;;;;7.82;7.43;;;;;;;;;;5047963;28;20033;-72
2022/09/16 14:15:40;;;;;;;7.50;7.10;;;;;;;;;;5046930;28;20033;-72
2022/09/16 14:18:11;;;;;;;7.30;6.90;;;;;;;;;;5046568;28;20539;-72
2022/09/16 14:20:37;;;;;;;7.30;6.90;;;;;;;;;;5055099;28;20059;-72
2022/09/16 14:23:16;;;;;;;7.40;7.00;;;;;;;;;;5048550;28;20407;-72
2022/09/16 14:25:42;;;;;;;7.25;6.88;;;;;;;;;;5047396;28;20037;-72
2022/09/16 14:28:19;;;;;;;7.40;7.00;;;;;;;;;;5053318;28;20033;-71
2022/09/16 14:30:55;;;;;;;7.57;7.18;;;;;;;;;;5048344;28;20048;-72
2022/09/16 14:33:30;;;;;;;6.75;6.45;;;;;;;;;;5048144;28;20740;-72
2022/09/16 14:35:58;;;;;;;6.95;6.65;;;;;;;;;;5046915;28;20070;-72
2022/09/16 14:38:40;;;;;;;7.05;6.75;;;;;;;;;;5053690;28;20091;-72
2022/09/16 14:41:07;;;;;;;6.97;6.68;;;;;;;;;;5047625;28;20043;-72
2022/09/16 14:43:36;;;;;;;7.05;6.75;;;;;;;;;;5049161;28;20029;-72
2022/09/16 14:46:05;;;;;;;7.35;6.95;;;;;;;;;;5047417;28;20037;-72
2022/09/16 14:48:36;;;;;;;6.90;6.60;;;;;;;;;;5052186;28;20033;-71
2022/09/16 14:51:02;;;;;;;7.07;6.78;;;;;;;;;;5053188;28;20044;-72
2022/09/16 14:53:31;;;;;;;7.30;6.90;;;;;;;;;;5045893;28;20521;-72
2022/09/16 14:55:57;;;;;;;7.00;6.70;;;;;;;;;;5048809;28;20514;-72
2022/09/16 14:58:26;;;;;;;7.45;7.05;;;;;;;;;;5052138;28;20037;-72
2022/09/16 15:01:02;;;;;;;7.38;6.97;;;;;;;;;;5056860;28;20035;-72
2022/09/16 15:03:49;;;;;;;6.65;6.35;;;;;;;;;;5051126;28;20400;-72
2022/09/16 15:06:22;;;;;;;6.90;6.60;;;;;;;;;;5051709;28;20024;-71
2022/09/16 15:09:01;;;;;;;7.00;6.70;;;;;;;;;;5047258;28;20040;-72
2022/09/16 15:11:43;;;;;;;7.30;6.90;;;;;;;;;;5047654;28;20527;-72
2022/09/16 15:14:08;;;;;;;6.90;6.60;;;;;;;;;;5049810;28;20032;-71
2022/09/16 15:16:40;;;;;;;7.10;6.80;;;;;;;;;;5049355;28;20424;-71
2022/09/16 15:19:20;;;;;;;7.32;6.93;;;;;;;;;;5039693;28;20454;-72
2022/09/16 15:21:46;;;;;;;;;;;;;;;;;;5046833;28;20060;-72